Terminal Aerodrome Forecast
Issued by NWS Cleveland, OH

Home | Current Version | Previous Version | Graphics & Text | Print | Product List | Glossary Off
Versions: 1 2 3 4 5 6 7 8 9 10 11 12 13 14 15 16 17 18 19 20 21 22 23

000
FTUS41 KCLE 222300 RRA
TAFCAK
TAF
KCAK 222341Z 2300/2324 00000KT P6SM BKN070
     FM230300 00000KT P6SM SCT070
     FM230700 00000KT 4SM BR SCT020
     FM230900 00000KT 1/2SM FG BKN003
     FM231330 VRB03KT 2SM BR BKN008
     FM231500 04006KT P6SM BKN020
     FM231800 04006KT P6SM BKN035=

USA.gov is the U.S. government's official web portal to all federal, state and local government web resources and services.